Caninde de Sao Francisco, Brazil
Current Conditions -  °F | °C
As of 7:00 PM on Sunday 25 Jan 2015 (Local Time) from SBUF Reporting Station
Few Clouds Few Clouds  
Wind Chill: 88°   Ceiling: Unl
Heat Index: 88°   Visibility: 6mi
Dew Point: 61°   Wind: 9mph
Humidity: 40%   Direction: 120°ESE
Pressure: 29.88"   Gusts: NA
Location:  9.65°S, 37.8°W
Report Text: SBUF 252200Z 12008KT 9999 FEW022 31/16 Q1012
Loading
Personal Weather Stations






























Interactive Weather Map New forecast layout! Learn more

10-Day Weather Forecast

Advertisements
Track Severe Weather on mobile